Time;durP1;ratioP1;P1;durP2;ratioP2;P2;SDS_P1;SDS_P2;PMS_P1;PMS_P2;Temp;Humidity;BMP_temperature;BMP_pressure;BME280_temperature;BME280_humidity;BME280_pressure;Samples;Min_cycle;Max_cycle;Signal;HPM_P1;HPM_P2
2023/05/22 00:01:50;;;;;;;5.88;2.15;;;22.30;1.00;;;;;;4999032;28;20113;-45
2023/05/22 00:04:20;;;;;;;6.07;2.65;;;22.30;1.00;;;;;;4992400;28;20536;-46
2023/05/22 00:06:47;;;;;;;4.03;2.28;;;22.30;1.00;;;;;;4992518;28;20209;-45
2023/05/22 00:09:14;;;;;;;4.45;2.63;;;22.20;1.00;;;;;;4992529;28;20492;-46
2023/05/22 00:11:41;;;;;;;4.18;2.28;;;22.20;1.00;;;;;;4992465;28;20497;-45
2023/05/22 00:14:08;;;;;;;3.08;2.42;;;22.20;1.00;;;;;;4992452;28;20041;-45
2023/05/22 00:16:35;;;;;;;5.97;2.55;;;22.20;1.00;;;;;;4992496;28;20081;-46
2023/05/22 00:19:02;;;;;;;5.30;2.17;;;22.20;1.00;;;;;;4992361;28;20061;-46
2023/05/22 00:21:33;;;;;;;6.05;2.85;;;22.20;1.00;;;;;;4992279;28;20101;-46
2023/05/22 00:24:00;;;;;;;4.82;2.75;;;22.20;1.00;;;;;;4992540;28;20513;-46
2023/05/22 00:26:27;;;;;;;5.30;2.67;;;22.20;1.00;;;;;;4992317;28;20517;-46
2023/05/22 00:28:54;;;;;;;5.78;2.00;;;22.20;1.00;;;;;;4992368;28;20367;-45
2023/05/22 00:31:22;;;;;;;6.50;2.60;;;22.20;1.00;;;;;;5007331;28;20073;-46
2023/05/22 00:33:49;;;;;;;4.32;2.63;;;22.20;1.00;;;;;;4992258;28;20133;-45
2023/05/22 00:36:17;;;;;;;5.32;2.80;;;22.20;1.00;;;;;;4990735;28;20070;-46
2023/05/22 00:38:45;;;;;;;4.40;2.20;;;22.20;1.00;;;;;;5002835;28;20069;-45
2023/05/22 00:41:12;;;;;;;7.55;2.50;;;22.20;1.00;;;;;;4996055;28;20042;-47
2023/05/22 00:43:39;;;;;;;4.68;2.17;;;22.10;1.00;;;;;;5010903;28;20086;-47
2023/05/22 00:46:08;;;;;;;4.32;2.25;;;22.10;1.00;;;;;;4994696;28;20080;-48
2023/05/22 00:48:35;;;;;;;8.20;2.20;;;22.10;1.00;;;;;;4995306;28;20101;-46
2023/05/22 00:51:03;;;;;;;4.13;1.63;;;22.10;1.00;;;;;;4994454;28;20053;-48
2023/05/22 00:53:30;;;;;;;4.80;2.15;;;22.10;1.00;;;;;;4995812;28;20466;-49
2023/05/22 00:55:58;;;;;;;2.85;2.10;;;22.10;1.00;;;;;;4994476;28;20046;-45
2023/05/22 00:58:26;;;;;;;6.55;2.92;;;22.10;1.00;;;;;;4995327;28;20390;-45
2023/05/22 01:00:54;;;;;;;4.97;2.72;;;22.10;1.00;;;;;;4994255;28;20079;-46
2023/05/22 01:03:24;;;;;;;4.18;2.33;;;22.10;1.00;;;;;;4994029;28;20068;-45
2023/05/22 01:05:54;;;;;;;6.60;2.78;;;22.10;1.00;;;;;;4995727;28;20035;-45
2023/05/22 01:08:21;;;;;;;4.05;2.55;;;22.10;1.00;;;;;;4995370;28;20038;-45
2023/05/22 01:11:00;;;;;;;6.60;2.63;;;22.10;1.00;;;;;;4994083;28;20045;-47
2023/05/22 01:14:03;;;;;;;10.55;2.90;;;22.00;1.00;;;;;;4995355;28;20460;-45
2023/05/22 01:16:45;;;;;;;5.38;2.75;;;22.00;1.00;;;;;;4993888;28;20497;-45
2023/05/22 01:19:49;;;;;;;5.07;3.03;;;22.00;1.00;;;;;;4995128;28;20069;-45
2023/05/22 01:22:44;;;;;;;5.07;2.25;;;22.00;1.00;;;;;;4995229;28;20048;-46
2023/05/22 01:25:39;;;;;;;5.25;2.50;;;22.00;1.00;;;;;;4993724;28;20409;-46
2023/05/22 01:28:33;;;;;;;5.82;2.92;;;22.00;1.00;;;;;;4995119;28;20071;-46
2023/05/22 01:31:14;;;;;;;7.45;2.13;;;22.00;1.00;;;;;;4993604;28;20034;-45
2023/05/22 01:33:46;;;;;;;4.20;2.80;;;22.00;1.00;;;;;;4993471;28;20054;-45
2023/05/22 01:36:18;;;;;;;4.75;3.05;;;22.00;1.00;;;;;;4993779;28;20058;-46
2023/05/22 01:38:46;;;;;;;6.20;3.17;;;22.00;1.00;;;;;;4993601;28;20090;-45
2023/05/22 01:41:13;;;;;;;4.85;2.53;;;22.00;1.00;;;;;;4993532;28;20133;-45
2023/05/22 01:43:41;;;;;;;6.15;2.95;;;22.00;1.00;;;;;;4993366;28;20416;-45
2023/05/22 01:46:07;;;;;;;3.35;2.53;;;21.90;1.00;;;;;;4993543;28;20082;-45
2023/05/22 01:48:35;;;;;;;4.15;2.65;;;21.90;1.00;;;;;;4992768;28;20046;-45
2023/05/22 01:51:43;;;;;;;5.55;2.42;;;21.90;1.00;;;;;;4993385;28;20039;-46
2023/05/22 01:54:16;;;;;;;7.05;2.78;;;21.90;1.00;;;;;;4980145;28;20042;-45
2023/05/22 01:56:50;;;;;;;4.20;2.20;;;21.90;1.00;;;;;;4986789;28;20039;-46
2023/05/22 01:59:20;;;;;;;4.22;2.45;;;21.90;1.00;;;;;;4993351;28;20069;-46
2023/05/22 02:01:50;;;;;;;4.88;2.55;;;21.90;1.00;;;;;;4993029;28;20137;-45
2023/05/22 02:04:20;;;;;;;4.57;3.08;;;21.90;1.00;;;;;;4994342;28;20073;-47
2023/05/22 02:06:49;;;;;;;7.32;3.03;;;21.90;1.00;;;;;;4993408;28;20073;-45
2023/05/22 02:09:17;;;;;;;6.90;2.53;;;21.90;1.00;;;;;;5000655;28;20038;-45
2023/05/22 02:11:45;;;;;;;8.15;2.67;;;21.90;1.00;;;;;;4993052;28;20050;-46
2023/05/22 02:14:12;;;;;;;5.53;2.83;;;21.80;1.00;;;;;;4992621;28;20383;-45
2023/05/22 02:16:41;;;;;;;5.25;3.25;;;21.80;1.00;;;;;;5009136;28;20042;-46
2023/05/22 02:19:08;;;;;;;4.75;2.85;;;21.80;1.00;;;;;;4992773;28;20174;-47
2023/05/22 02:21:35;;;;;;;6.20;2.50;;;21.80;1.00;;;;;;4992783;28;20090;-45
2023/05/22 02:24:02;;;;;;;6.53;2.72;;;21.80;1.00;;;;;;4992836;28;20096;-46
2023/05/22 02:26:29;;;;;;;4.75;3.10;;;21.80;1.00;;;;;;4992691;28;20054;-47
2023/05/22 02:28:55;;;;;;;6.93;3.17;;;21.80;1.00;;;;;;4993819;28;20050;-45
2023/05/22 02:31:25;;;;;;;3.38;1.88;;;21.80;1.00;;;;;;4992526;28;20062;-46
2023/05/22 02:33:51;;;;;;;4.50;2.95;;;21.80;1.00;;;;;;4992384;28;20046;-46
2023/05/22 02:36:19;;;;;;;4.65;2.70;;;21.80;1.00;;;;;;4992439;28;20045;-46
2023/05/22 02:38:46;;;;;;;5.60;2.70;;;21.80;1.00;;;;;;5008631;28;20077;-47
2023/05/22 02:41:13;;;;;;;5.78;2.50;;;21.80;1.00;;;;;;4992383;28;20056;-46
2023/05/22 02:43:40;;;;;;;5.05;3.10;;;21.80;1.00;;;;;;4992236;28;20053;-46
2023/05/22 02:46:07;;;;;;;5.82;3.20;;;21.80;1.00;;;;;;4992338;28;20038;-46
2023/05/22 02:48:34;;;;;;;6.05;3.00;;;21.70;1.00;;;;;;4992003;28;20061;-46
2023/05/22 02:51:01;;;;;;;5.13;3.30;;;21.80;1.00;;;;;;4992022;28;20039;-46
2023/05/22 02:53:27;;;;;;;6.68;2.88;;;21.80;1.00;;;;;;4993395;28;20405;-46
2023/05/22 02:55:57;;;;;;;3.92;2.17;;;21.70;1.00;;;;;;4992175;28;20482;-46
2023/05/22 02:58:24;;;;;;;8.55;3.35;;;21.70;1.00;;;;;;4991898;28;20047;-46
2023/05/22 03:00:52;;;;;;;6.30;3.58;;;21.70;1.00;;;;;;4991136;28;20486;-45
2023/05/22 03:03:19;;;;;;;7.78;2.80;;;21.70;1.00;;;;;;4991976;28;20129;-45
2023/05/22 03:05:46;;;;;;;7.90;3.05;;;21.70;1.00;;;;;;4991699;28;20061;-45
2023/05/22 03:08:14;;;;;;;6.50;2.92;;;21.70;1.00;;;;;;4993152;28;20045;-45
2023/05/22 03:10:41;;;;;;;6.53;2.97;;;21.70;1.00;;;;;;4993258;28;20402;-46
2023/05/22 03:13:08;;;;;;;5.05;3.03;;;21.70;1.00;;;;;;4991589;28;20137;-45
2023/05/22 03:15:35;;;;;;;5.32;2.90;;;21.70;1.00;;;;;;4991665;28;20128;-46
2023/05/22 03:18:10;;;;;;;7.15;3.00;;;21.70;1.00;;;;;;4991750;28;20100;-46
2023/05/22 03:20:38;;;;;;;5.35;3.13;;;21.70;1.00;;;;;;4991721;28;20120;-45
2023/05/22 03:23:05;;;;;;;10.63;3.38;;;21.60;1.00;;;;;;5008136;28;20105;-45
2023/05/22 03:25:32;;;;;;;6.30;3.28;;;21.60;1.00;;;;;;4991506;28;20097;-45
2023/05/22 03:27:59;;;;;;;8.77;3.42;;;21.70;1.00;;;;;;4991399;28;20076;-45
2023/05/22 03:30:30;;;;;;;6.25;2.75;;;21.60;1.00;;;;;;4991503;28;20047;-45
2023/05/22 03:33:08;;;;;;;3.90;2.53;;;21.60;1.00;;;;;;4991625;28;20129;-47
2023/05/22 03:35:35;;;;;;;6.25;3.63;;;21.60;1.00;;;;;;4991608;28;20046;-46
2023/05/22 03:38:02;;;;;;;6.55;2.80;;;21.60;1.00;;;;;;4991453;28;20053;-45
2023/05/22 03:40:29;;;;;;;5.78;3.35;;;21.60;1.00;;;;;;4992807;28;20042;-45
2023/05/22 03:42:55;;;;;;;5.53;2.60;;;21.60;1.00;;;;;;4992139;28;20035;-45
2023/05/22 03:45:23;;;;;;;4.55;3.25;;;21.60;1.00;;;;;;4990782;28;20042;-45
2023/05/22 03:47:50;;;;;;;7.10;3.47;;;21.60;1.00;;;;;;4990331;28;20363;-46
2023/05/22 03:50:17;;;;;;;5.18;3.08;;;21.60;1.00;;;;;;4992693;28;20038;-45
2023/05/22 03:52:44;;;;;;;5.28;3.10;;;21.60;1.00;;;;;;4991862;28;20035;-46
2023/05/22 03:55:11;;;;;;;6.25;3.38;;;21.50;1.00;;;;;;4991096;28;20049;-45
2023/05/22 03:57:37;;;;;;;5.20;3.47;;;21.60;1.00;;;;;;4990887;28;20047;-45
2023/05/22 04:00:08;;;;;;;8.00;3.63;;;21.60;1.00;;;;;;5007361;28;20120;-45
2023/05/22 04:02:43;;;;;;;6.63;4.00;;;21.50;1.00;;;;;;4992481;28;20088;-47
2023/05/22 04:05:11;;;;;;;5.90;3.30;;;21.60;1.00;;;;;;4990909;28;20394;-45
2023/05/22 04:07:37;;;;;;;5.60;3.38;;;21.50;1.00;;;;;;4987809;28;20497;-45
2023/05/22 04:10:05;;;;;;;4.68;2.80;;;21.50;1.00;;;;;;4999965;28;20052;-47
2023/05/22 04:12:32;;;;;;;5.90;3.00;;;21.50;1.00;;;;;;5009551;28;20100;-45
2023/05/22 04:14:59;;;;;;;5.32;2.67;;;21.50;1.00;;;;;;4994910;28;20053;-48
2023/05/22 04:17:31;;;;;;;5.78;3.70;;;21.50;1.00;;;;;;4994845;28;20045;-46
2023/05/22 04:19:59;;;;;;;4.97;2.83;;;21.50;1.00;;;;;;4995213;28;20057;-45
2023/05/22 04:22:26;;;;;;;5.25;3.03;;;21.50;1.00;;;;;;4994952;28;20053;-45
2023/05/22 04:24:53;;;;;;;15.90;5.32;;;21.50;1.00;;;;;;4987144;28;20039;-46
2023/05/22 04:27:21;;;;;;;9.63;5.40;;;21.50;1.00;;;;;;4986771;28;20065;-45
2023/05/22 04:29:49;;;;;;;6.70;4.18;;;21.50;1.00;;;;;;4979436;28;20038;-45
2023/05/22 04:32:22;;;;;;;12.38;4.15;;;21.50;1.00;;;;;;4994696;28;20049;-46
2023/05/22 04:34:49;;;;;;;7.18;3.95;;;21.50;1.00;;;;;;4994754;28;20130;-45
2023/05/22 04:37:18;;;;;;;10.18;4.32;;;21.50;1.00;;;;;;4995935;28;20038;-47
2023/05/22 04:39:46;;;;;;;9.32;4.38;;;21.50;1.00;;;;;;4994769;28;20073;-45
2023/05/22 04:42:13;;;;;;;10.65;4.32;;;21.50;1.00;;;;;;4988541;28;20047;-45
2023/05/22 04:44:41;;;;;;;6.55;3.33;;;21.50;1.00;;;;;;4994237;28;20042;-45
2023/05/22 04:47:13;;;;;;;6.43;4.00;;;21.50;1.00;;;;;;4995838;28;20034;-45
2023/05/22 04:49:41;;;;;;;8.57;4.38;;;21.50;1.00;;;;;;4995903;28;20469;-46
2023/05/22 04:52:10;;;;;;;6.63;4.05;;;21.50;1.00;;;;;;4994442;28;20066;-45
2023/05/22 04:54:42;;;;;;;8.10;4.35;;;21.50;1.00;;;;;;4989679;28;20080;-45
2023/05/22 04:57:08;;;;;;;7.25;4.50;;;21.40;1.00;;;;;;4996594;28;20511;-45
2023/05/22 04:59:40;;;;;;;7.68;4.68;;;21.40;1.00;;;;;;4982465;28;20724;-46
2023/05/22 05:02:07;;;;;;;8.02;4.45;;;21.40;1.00;;;;;;4993986;28;20039;-45
2023/05/22 05:04:35;;;;;;;7.03;4.63;;;21.40;1.00;;;;;;4994156;28;20174;-45
2023/05/22 05:07:03;;;;;;;8.50;4.15;;;21.40;1.00;;;;;;4994046;28;20129;-45
2023/05/22 05:09:31;;;;;;;9.30;4.55;;;21.40;1.00;;;;;;4993972;28;20517;-46
2023/05/22 05:11:58;;;;;;;7.43;4.07;;;21.40;1.00;;;;;;4994011;28;20039;-45
2023/05/22 05:14:25;;;;;;;7.45;5.10;;;21.40;1.00;;;;;;4994299;28;20606;-45
2023/05/22 05:16:52;;;;;;;7.75;4.68;;;21.40;1.00;;;;;;4995239;28;20039;-45
2023/05/22 05:19:22;;;;;;;9.52;4.72;;;21.40;1.00;;;;;;4994218;28;20070;-44
2023/05/22 05:21:49;;;;;;;7.10;4.22;;;21.40;1.00;;;;;;4993833;28;20518;-45
2023/05/22 05:24:16;;;;;;;6.35;5.22;;;21.50;1.00;;;;;;4993139;28;20050;-45
2023/05/22 05:26:44;;;;;;;6.10;4.32;;;21.40;1.00;;;;;;4993691;28;20116;-45
2023/05/22 05:29:11;;;;;;;6.63;4.07;;;21.50;1.00;;;;;;4993681;28;20390;-45
2023/05/22 05:31:45;;;;;;;7.97;3.95;;;21.50;1.00;;;;;;4993549;28;20042;-46
2023/05/22 05:34:32;;;;;;;8.40;4.00;;;21.50;1.00;;;;;;4983417;28;20632;-45
2023/05/22 05:37:04;;;;;;;9.93;4.85;;;21.50;1.00;;;;;;4993341;28;20444;-46
2023/05/22 05:39:32;;;;;;;7.50;3.92;;;21.50;1.00;;;;;;4993578;28;20042;-46
2023/05/22 05:42:01;;;;;;;5.93;4.57;;;21.40;1.00;;;;;;4993304;28;20549;-46
2023/05/22 05:44:28;;;;;;;10.70;4.80;;;21.50;1.00;;;;;;4993457;28;20046;-45
2023/05/22 05:46:56;;;;;;;8.10;4.00;;;21.40;1.00;;;;;;4993113;28;20401;-45
2023/05/22 05:49:23;;;;;;;6.43;4.00;;;21.50;1.00;;;;;;4994884;28;20036;-45
2023/05/22 05:51:50;;;;;;;6.85;4.43;;;21.50;1.00;;;;;;4993341;28;20133;-45
2023/05/22 05:54:18;;;;;;;6.93;4.85;;;21.50;1.00;;;;;;4993274;28;20489;-45
2023/05/22 05:56:45;;;;;;;5.70;4.13;;;21.50;1.00;;;;;;4994478;28;20035;-47
2023/05/22 05:59:12;;;;;;;5.93;4.50;;;21.40;1.00;;;;;;4993220;28;20129;-46
2023/05/22 06:02:14;;;;;;;8.88;3.67;;;21.50;1.00;;;;;;4953211;28;20054;-58
2023/05/22 06:04:47;;;;;;;8.10;4.68;;;21.50;1.00;;;;;;4969847;28;20156;-46
2023/05/22 06:07:16;;;;;;;9.18;5.70;;;21.50;1.00;;;;;;4993460;28;20046;-46
2023/05/22 06:09:45;;;;;;;6.85;4.72;;;21.50;1.00;;;;;;4992790;28;20457;-46
2023/05/22 06:12:20;;;;;;;9.30;4.97;;;21.50;1.00;;;;;;4992883;28;20038;-46
2023/05/22 06:14:47;;;;;;;5.40;4.60;;;21.50;1.00;;;;;;4992748;28;20062;-45
2023/05/22 06:17:14;;;;;;;6.38;4.22;;;21.50;1.00;;;;;;4994046;28;20030;-46
2023/05/22 06:19:42;;;;;;;10.55;5.53;;;21.40;1.00;;;;;;4992850;28;20077;-47
2023/05/22 06:22:09;;;;;;;6.30;4.07;;;21.50;1.00;;;;;;4992639;28;20072;-46
2023/05/22 06:24:38;;;;;;;8.98;5.05;;;21.50;1.00;;;;;;4992568;28;20054;-46
2023/05/22 06:27:11;;;;;;;;;;;21.40;1.00;;;;;;4993830;28;20061;-46
2023/05/22 06:29:38;;;;;;;8.77;5.05;;;21.40;1.00;;;;;;4993656;28;19925;-46
2023/05/22 06:32:06;;;;;;;11.15;5.00;;;21.40;1.00;;;;;;4992424;28;20034;-46
2023/05/22 06:34:35;;;;;;;8.20;4.82;;;21.40;1.00;;;;;;4992429;28;20501;-46
2023/05/22 06:37:02;;;;;;;6.15;5.18;;;21.40;1.00;;;;;;4992080;28;20391;-47
2023/05/22 06:39:34;;;;;;;6.63;5.05;;;21.40;1.00;;;;;;4992426;28;20073;-48
2023/05/22 06:42:31;;;;;;;7.65;5.15;;;21.40;1.00;;;;;;4988774;28;20062;-49
2023/05/22 06:45:27;;;;;;;17.67;4.78;;;21.40;1.00;;;;;;4988450;28;20081;-48
2023/05/22 06:48:18;;;;;;;7.72;4.13;;;21.50;1.00;;;;;;4992276;28;20608;-47
2023/05/22 06:51:15;;;;;;;9.10;4.57;;;21.40;1.00;;;;;;4992012;28;20046;-49
2023/05/22 06:53:44;;;;;;;13.00;5.93;;;21.40;1.00;;;;;;4991900;28;20101;-46
2023/05/22 06:56:16;;;;;;;7.20;4.82;;;21.50;1.00;;;;;;4991928;28;20442;-47
2023/05/22 06:59:06;;;;;;;7.95;4.72;;;21.40;1.00;;;;;;4990202;28;20054;-46
2023/05/22 07:01:51;;;;;;;6.90;4.45;;;21.50;1.00;;;;;;4993553;28;20053;-46
2023/05/22 07:04:28;;;;;;;10.27;4.65;;;21.50;1.00;;;;;;4991956;28;20043;-46
2023/05/22 07:06:57;;;;;;;6.57;4.78;;;21.50;1.00;;;;;;4991523;28;20394;-46
2023/05/22 07:09:24;;;;;;;10.75;5.00;;;21.50;1.00;;;;;;4991901;28;20049;-46
2023/05/22 07:11:52;;;;;;;10.25;5.25;;;21.50;1.00;;;;;;4992835;28;20034;-46
2023/05/22 07:14:20;;;;;;;6.63;4.57;;;21.50;1.00;;;;;;4993367;28;20047;-46
2023/05/22 07:16:46;;;;;;;7.32;4.43;;;21.50;1.00;;;;;;4993379;28;20498;-46
2023/05/22 07:19:19;;;;;;;5.18;4.13;;;21.50;1.00;;;;;;4992062;28;20568;-46
2023/05/22 07:21:46;;;;;;;6.22;4.38;;;21.50;1.00;;;;;;4991384;28;20097;-46
2023/05/22 07:24:16;;;;;;;14.43;5.00;;;21.50;1.00;;;;;;4991426;28;20514;-46
2023/05/22 07:26:45;;;;;;;8.10;4.70;;;21.50;1.00;;;;;;4991412;28;20133;-46
2023/05/22 07:29:13;;;;;;;6.88;4.68;;;21.50;1.00;;;;;;4991452;28;20049;-45
2023/05/22 07:31:41;;;;;;;7.45;5.43;;;21.50;1.00;;;;;;4991213;28;20057;-49
2023/05/22 07:34:09;;;;;;;7.75;4.43;;;21.50;1.00;;;;;;4991436;28;20046;-47
2023/05/22 07:36:36;;;;;;;9.20;4.85;;;21.50;1.00;;;;;;4991360;28;20050;-46
2023/05/22 07:39:04;;;;;;;6.38;4.65;;;21.50;1.00;;;;;;4991138;28;20034;-46
2023/05/22 07:41:35;;;;;;;6.13;3.78;;;21.60;1.00;;;;;;4991418;28;20046;-46
2023/05/22 07:44:02;;;;;;;5.05;4.00;;;21.60;1.00;;;;;;4991337;28;20042;-45
2023/05/22 07:46:34;;;;;;;6.55;3.95;;;21.60;1.00;;;;;;4990631;28;20090;-46
2023/05/22 07:49:09;;;;;;;7.50;4.90;;;21.60;1.00;;;;;;4991190;28;20077;-46
2023/05/22 07:51:39;;;;;;;8.75;5.65;;;21.60;1.00;;;;;;4991256;28;20129;-46
2023/05/22 07:54:08;;;;;;;9.00;4.47;;;21.60;1.00;;;;;;4991322;28;20042;-46
2023/05/22 07:56:42;;;;;;;6.43;4.50;;;21.70;1.00;;;;;;4991108;28;20557;-46
2023/05/22 07:59:10;;;;;;;4.95;3.35;;;21.70;1.00;;;;;;4991223;28;20073;-46
2023/05/22 08:01:39;;;;;;;5.80;3.70;;;21.70;1.00;;;;;;5007310;28;20046;-46
2023/05/22 08:04:06;;;;;;;6.47;4.30;;;21.70;1.00;;;;;;4992083;28;20041;-45
2023/05/22 08:06:36;;;;;;;6.90;4.43;;;21.70;1.00;;;;;;4992103;28;20039;-56
2023/05/22 08:09:06;;;;;;;8.43;4.10;;;21.70;1.00;;;;;;4992107;28;20092;-47
2023/05/22 08:11:33;;;;;;;7.10;4.40;;;21.70;1.00;;;;;;4990716;28;20137;-46
2023/05/22 08:13:59;;;;;;;6.55;3.92;;;21.70;1.00;;;;;;4992216;28;20247;-47
2023/05/22 08:16:26;;;;;;;6.05;3.67;;;21.70;1.00;;;;;;4992482;28;20177;-45
2023/05/22 08:18:53;;;;;;;9.18;4.72;;;21.70;1.00;;;;;;4992381;28;20093;-48
2023/05/22 08:21:20;;;;;;;5.28;3.78;;;21.80;1.00;;;;;;4992001;28;20093;-45
2023/05/22 08:23:47;;;;;;;4.75;3.58;;;21.80;1.00;;;;;;4991890;28;20101;-46
2023/05/22 08:26:14;;;;;;;6.65;3.95;;;21.80;1.00;;;;;;4992138;28;20122;-46
2023/05/22 08:28:43;;;;;;;5.53;3.38;;;21.80;1.00;;;;;;4992119;28;20050;-47
2023/05/22 08:31:19;;;;;;;5.60;3.80;;;21.80;1.00;;;;;;4992242;28;20113;-48
2023/05/22 08:33:46;;;;;;;6.80;3.85;;;21.80;1.00;;;;;;4992010;28;20030;-47
2023/05/22 08:36:14;;;;;;;4.93;3.30;;;21.90;1.00;;;;;;4992078;28;20406;-48
2023/05/22 08:38:41;;;;;;;5.40;3.60;;;21.90;1.00;;;;;;4991830;28;20045;-46
2023/05/22 08:41:09;;;;;;;7.97;3.60;;;21.90;1.00;;;;;;4992293;28;20046;-46
2023/05/22 08:43:36;;;;;;;5.97;3.50;;;21.90;1.00;;;;;;4992245;28;20438;-47
2023/05/22 08:46:04;;;;;;;6.75;4.20;;;22.00;1.00;;;;;;4992216;28;20484;-47
2023/05/22 08:48:31;;;;;;;7.45;3.63;;;21.90;1.00;;;;;;4992119;28;20050;-49
2023/05/22 08:51:12;;;;;;;7.05;3.97;;;22.00;1.00;;;;;;4991941;28;20522;-48
2023/05/22 08:53:41;;;;;;;4.93;3.13;;;22.00;1.00;;;;;;4992211;28;20043;-48
2023/05/22 08:56:09;;;;;;;5.00;3.85;;;22.00;1.00;;;;;;4991899;28;20038;-47
2023/05/22 08:58:37;;;;;;;7.50;3.30;;;22.00;1.00;;;;;;4992624;28;20061;-46
2023/05/22 09:01:07;;;;;;;6.50;3.30;;;22.00;1.00;;;;;;4995517;28;20039;-47
2023/05/22 09:03:35;;;;;;;7.43;3.58;;;22.00;1.00;;;;;;4995376;28;20050;-47
2023/05/22 09:06:03;;;;;;;8.25;4.53;;;22.00;1.00;;;;;;4995232;28;20097;-49
2023/05/22 09:08:30;;;;;;;5.72;3.35;;;22.00;1.00;;;;;;4995245;28;20097;-48
2023/05/22 09:10:57;;;;;;;6.03;3.83;;;22.00;1.00;;;;;;4995231;28;20048;-47
2023/05/22 09:13:30;;;;;;;8.38;4.28;;;22.00;1.00;;;;;;4995304;28;20035;-49
2023/05/22 09:15:59;;;;;;;7.15;4.00;;;22.00;1.00;;;;;;4993761;28;20064;-47
2023/05/22 09:18:28;;;;;;;10.75;3.40;;;22.00;1.00;;;;;;4995089;28;20042;-46
2023/05/22 09:20:57;;;;;;;7.18;3.80;;;22.00;1.00;;;;;;4995275;28;20047;-50
2023/05/22 09:23:26;;;;;;;9.18;3.63;;;22.00;1.00;;;;;;4995151;28;20129;-48
2023/05/22 09:25:58;;;;;;;6.85;3.30;;;22.00;1.00;;;;;;4996265;28;20158;-46
2023/05/22 09:28:27;;;;;;;5.30;3.63;;;22.00;1.00;;;;;;5000998;28;20066;-45
2023/05/22 09:30:54;;;;;;;5.07;3.33;;;22.00;1.00;;;;;;4994927;28;20053;-46
2023/05/22 09:33:22;;;;;;;5.18;3.20;;;22.00;1.00;;;;;;4994902;28;20560;-47
2023/05/22 09:35:51;;;;;;;5.43;3.10;;;22.00;1.00;;;;;;4994916;28;20093;-45
2023/05/22 09:38:20;;;;;;;5.60;3.38;;;22.00;1.00;;;;;;4994838;28;20117;-45
2023/05/22 09:40:52;;;;;;;5.60;3.83;;;22.10;1.00;;;;;;4994609;28;20085;-46
2023/05/22 09:43:20;;;;;;;7.00;4.10;;;22.10;1.00;;;;;;4994966;28;20046;-46
2023/05/22 09:45:46;;;;;;;5.40;3.50;;;22.00;1.00;;;;;;4994835;28;20121;-48
2023/05/22 09:48:16;;;;;;;8.52;3.75;;;22.00;1.00;;;;;;4995010;28;20046;-47
2023/05/22 09:50:47;;;;;;;7.25;3.88;;;22.10;1.00;;;;;;4994544;28;20405;-47
2023/05/22 09:53:17;;;;;;;8.55;3.30;;;22.00;1.00;;;;;;5009549;28;20053;-46
2023/05/22 09:55:47;;;;;;;7.97;3.35;;;22.10;1.00;;;;;;4994752;28;20091;-48
2023/05/22 09:58:17;;;;;;;5.25;3.00;;;22.10;1.00;;;;;;4994560;28;20037;-47
2023/05/22 10:00:47;;;;;;;6.28;3.53;;;22.10;1.00;;;;;;4994644;28;20050;-46
2023/05/22 10:03:16;;;;;;;4.78;3.13;;;22.10;1.00;;;;;;4998730;28;20504;-47
2023/05/22 10:05:47;;;;;;;6.28;3.85;;;22.10;1.00;;;;;;4998726;28;20047;-50
2023/05/22 10:08:19;;;;;;;5.43;3.50;;;22.10;1.00;;;;;;4995447;28;20525;-48
2023/05/22 10:10:52;;;;;;;8.07;3.97;;;22.10;1.00;;;;;;4995640;28;20074;-49
2023/05/22 10:13:19;;;;;;;5.78;3.20;;;22.10;1.00;;;;;;4995684;28;20552;-47
2023/05/22 10:15:48;;;;;;;7.07;3.72;;;22.10;1.00;;;;;;4995552;28;20042;-50
2023/05/22 10:18:16;;;;;;;5.15;3.28;;;22.10;1.00;;;;;;4995261;28;20089;-50
2023/05/22 10:20:45;;;;;;;9.25;3.42;;;22.10;1.00;;;;;;4995227;28;20046;-46
2023/05/22 10:23:15;;;;;;;6.70;3.10;;;22.10;1.00;;;;;;4994429;28;20049;-46
2023/05/22 10:25:43;;;;;;;5.43;3.47;;;22.20;1.00;;;;;;4994242;28;20042;-50
2023/05/22 10:28:13;;;;;;;6.75;3.92;;;22.20;1.00;;;;;;4994062;28;20133;-47
2023/05/22 10:30:41;;;;;;;9.10;2.97;;;22.20;1.00;;;;;;4994295;28;20070;-46
2023/05/22 10:33:28;;;;;;;5.50;3.47;;;22.20;1.00;;;;;;4993937;28;20046;-45
2023/05/22 10:36:00;;;;;;;8.98;3.58;;;22.20;1.00;;;;;;4994084;28;20042;-46
2023/05/22 10:38:51;;;;;;;7.82;4.30;;;22.20;1.00;;;;;;4993988;28;20073;-45
2023/05/22 10:41:18;;;;;;;4.80;3.25;;;22.20;1.00;;;;;;4993964;28;20162;-45
2023/05/22 10:43:48;;;;;;;4.90;3.38;;;22.20;1.00;;;;;;4993991;28;20051;-47
2023/05/22 10:46:16;;;;;;;6.85;3.50;;;22.20;1.00;;;;;;4993874;28;20457;-47
2023/05/22 10:48:45;;;;;;;9.07;3.67;;;22.20;1.00;;;;;;4993676;28;20042;-51
2023/05/22 10:51:13;;;;;;;5.05;2.47;;;22.20;1.00;;;;;;4993581;28;20486;-46
2023/05/22 10:53:43;;;;;;;7.13;3.60;;;22.20;1.00;;;;;;4993771;28;20080;-49
2023/05/22 10:56:15;;;;;;;6.95;2.97;;;22.20;1.00;;;;;;4993654;28;20042;-50
2023/05/22 10:58:54;;;;;;;7.40;2.92;;;22.20;1.00;;;;;;4993333;28;20508;-45
2023/05/22 11:01:25;;;;;;;7.50;4.07;;;22.30;1.00;;;;;;4993608;28;20121;-45
2023/05/22 11:04:17;;;;;;;5.57;3.30;;;22.30;1.00;;;;;;4992036;28;20081;-45
2023/05/22 11:07:05;;;;;;;4.35;3.40;;;22.30;1.00;;;;;;4991823;28;20460;-45
2023/05/22 11:09:32;;;;;;;;;;;22.30;1.00;;;;;;4994006;28;20052;-46
2023/05/22 11:12:23;;;;;;;9.25;3.72;;;22.20;1.00;;;;;;5001317;28;19929;-45
2023/05/22 11:14:58;;;;;;;8.40;3.60;;;22.30;1.00;;;;;;4983772;28;20490;-45
2023/05/22 11:17:26;;;;;;;7.55;3.80;;;22.30;1.00;;;;;;4993239;28;20072;-45
2023/05/22 11:20:04;;;;;;;7.00;4.07;;;22.20;1.00;;;;;;4993120;28;20399;-45
2023/05/22 11:22:40;;;;;;;12.00;4.15;;;22.30;1.00;;;;;;4991101;28;20109;-47
2023/05/22 11:25:15;;;;;;;7.05;3.67;;;22.30;1.00;;;;;;4992788;28;20046;-45
2023/05/22 11:27:43;;;;;;;6.00;3.22;;;22.30;1.00;;;;;;4992993;28;20097;-48
2023/05/22 11:30:11;;;;;;;9.93;3.90;;;22.30;1.00;;;;;;4992915;28;20050;-45
2023/05/22 11:32:42;;;;;;;9.05;3.90;;;22.30;1.00;;;;;;4992849;28;20446;-45
2023/05/22 11:35:20;;;;;;;5.18;3.38;;;22.30;1.00;;;;;;5000901;28;20040;-46
2023/05/22 11:37:48;;;;;;;7.80;4.40;;;22.30;1.00;;;;;;4992785;28;20118;-46
2023/05/22 11:40:28;;;;;;;6.88;3.60;;;22.30;1.00;;;;;;4993011;28;20450;-47
2023/05/22 11:42:56;;;;;;;7.32;3.85;;;22.30;1.00;;;;;;4992523;28;20050;-46
2023/05/22 11:45:23;;;;;;;8.18;3.83;;;22.30;1.00;;;;;;4992659;28;20042;-58
2023/05/22 11:47:50;;;;;;;5.22;3.83;;;22.30;1.00;;;;;;4992614;28;20120;-46
2023/05/22 11:50:17;;;;;;;4.00;3.17;;;22.30;1.00;;;;;;4992737;28;20070;-49
2023/05/22 11:53:01;;;;;;;6.72;4.55;;;22.30;1.00;;;;;;4992474;28;20100;-50
2023/05/22 11:55:28;;;;;;;7.32;3.65;;;22.30;1.00;;;;;;4992548;28;20034;-46
2023/05/22 11:57:55;;;;;;;7.18;3.33;;;22.30;1.00;;;;;;4992609;28;20101;-45
2023/05/22 12:00:22;;;;;;;5.53;3.67;;;22.40;1.00;;;;;;4984551;28;20042;-46
2023/05/22 12:02:49;;;;;;;6.53;3.92;;;22.40;1.00;;;;;;4992472;28;20049;-49
2023/05/22 12:05:18;;;;;;;5.03;3.20;;;22.30;1.00;;;;;;4992583;28;20397;-48
2023/05/22 12:07:45;;;;;;;5.47;3.15;;;22.40;1.00;;;;;;4992357;28;20042;-48
2023/05/22 12:10:13;;;;;;;6.20;3.55;;;22.30;1.00;;;;;;4992221;28;20540;-46
2023/05/22 12:12:42;;;;;;;5.63;3.22;;;22.30;1.00;;;;;;4992493;28;20113;-48
2023/05/22 12:15:09;;;;;;;6.97;2.80;;;22.30;1.00;;;;;;4992315;28;20093;-47
2023/05/22 12:17:37;;;;;;;7.25;3.63;;;22.30;1.00;;;;;;4992403;28;20080;-46
2023/05/22 12:20:05;;;;;;;5.95;3.60;;;22.40;1.00;;;;;;4992402;28;20112;-45
2023/05/22 12:22:32;;;;;;;5.95;2.80;;;22.40;1.00;;;;;;4992662;28;20093;-48
2023/05/22 12:24:59;;;;;;;6.10;3.72;;;22.40;1.00;;;;;;4992474;28;20046;-47
2023/05/22 12:27:29;;;;;;;8.25;4.15;;;22.40;1.00;;;;;;4992245;28;20096;-47
2023/05/22 12:30:06;;;;;;;;;;;22.40;1.00;;;;;;4991506;28;20567;-48
2023/05/22 12:32:33;;;;;;;7.22;3.22;;;22.40;1.00;;;;;;4993030;28;19922;-49
2023/05/22 12:35:00;;;;;;;7.68;3.22;;;22.40;1.00;;;;;;4996021;28;20042;-47
2023/05/22 12:37:27;;;;;;;7.18;4.25;;;22.40;1.00;;;;;;4995962;28;20057;-47
2023/05/22 12:39:55;;;;;;;5.72;3.35;;;22.40;1.00;;;;;;4996105;28;20049;-48
2023/05/22 12:42:22;;;;;;;5.97;3.53;;;22.40;1.00;;;;;;4999757;28;20049;-48
2023/05/22 12:44:51;;;;;;;8.63;3.50;;;22.40;1.00;;;;;;4999886;28;20061;-48
2023/05/22 12:47:18;;;;;;;5.40;3.47;;;22.40;1.00;;;;;;4995612;28;20122;-46
2023/05/22 12:49:45;;;;;;;6.03;2.95;;;22.40;1.00;;;;;;4996086;28;20066;-47
2023/05/22 12:52:12;;;;;;;7.18;3.35;;;22.40;1.00;;;;;;4995677;28;20042;-48
2023/05/22 12:54:39;;;;;;;5.65;3.47;;;22.40;1.00;;;;;;4995638;28;20125;-47
2023/05/22 12:57:06;;;;;;;5.95;3.33;;;22.40;1.00;;;;;;4995609;28;20046;-48
2023/05/22 12:59:33;;;;;;;5.03;3.60;;;22.40;1.00;;;;;;4995887;28;20041;-47
2023/05/22 13:02:01;;;;;;;6.38;3.42;;;22.40;1.00;;;;;;4995493;28;20038;-48
2023/05/22 13:04:28;;;;;;;8.40;4.15;;;22.40;1.00;;;;;;4995529;28;20556;-47
2023/05/22 13:06:55;;;;;;;5.78;3.40;;;22.40;1.00;;;;;;4995366;28;20066;-48
2023/05/22 13:09:22;;;;;;;5.03;3.40;;;22.40;1.00;;;;;;4995412;28;20052;-47
2023/05/22 13:11:49;;;;;;;5.95;3.28;;;22.40;1.00;;;;;;4995313;28;20050;-48
2023/05/22 13:14:16;;;;;;;4.68;3.30;;;22.40;1.00;;;;;;5002486;28;20043;-48